sensor_id;sensor_type;location;lat;lon;timestamp;temperature;humidity
5492;DHT22;2768;53.540;10.224;2023-05-08T00:04:30;11.90;63.30
5492;DHT22;2768;53.540;10.224;2023-05-08T00:10:24;12.00;62.20
5492;DHT22;2768;53.540;10.224;2023-05-08T00:16:19;12.00;63.30
5492;DHT22;2768;53.540;10.224;2023-05-08T00:22:12;11.90;66.80
5492;DHT22;2768;53.540;10.224;2023-05-08T00:28:05;11.80;64.00
5492;DHT22;2768;53.540;10.224;2023-05-08T00:34:00;11.70;60.20
5492;DHT22;2768;53.540;10.224;2023-05-08T00:39:53;11.60;60.10
5492;DHT22;2768;53.540;10.224;2023-05-08T00:45:47;11.60;60.00
5492;DHT22;2768;53.540;10.224;2023-05-08T00:51:42;11.50;60.00
5492;DHT22;2768;53.540;10.224;2023-05-08T00:57:36;11.60;54.80
5492;DHT22;2768;53.540;10.224;2023-05-08T01:03:31;11.40;49.90
5492;DHT22;2768;53.540;10.224;2023-05-08T01:09:27;11.30;44.70
5492;DHT22;2768;53.540;10.224;2023-05-08T01:15:26;11.30;44.80
5492;DHT22;2768;53.540;10.224;2023-05-08T01:21:26;11.30;50.60
5492;DHT22;2768;53.540;10.224;2023-05-08T01:27:50;11.30;53.30
5492;DHT22;2768;53.540;10.224;2023-05-08T01:33:51;11.20;53.20
5492;DHT22;2768;53.540;10.224;2023-05-08T01:39:59;11.10;47.40
5492;DHT22;2768;53.540;10.224;2023-05-08T01:45:56;11.00;47.10
5492;DHT22;2768;53.540;10.224;2023-05-08T01:52:01;11.10;45.80
5492;DHT22;2768;53.540;10.224;2023-05-08T01:57:57;11.10;43.80
5492;DHT22;2768;53.540;10.224;2023-05-08T02:03:51;11.00;45.10
5492;DHT22;2768;53.540;10.224;2023-05-08T02:09:47;10.80;40.70
5492;DHT22;2768;53.540;10.224;2023-05-08T02:15:41;10.80;42.00
5492;DHT22;2768;53.540;10.224;2023-05-08T02:21:36;10.80;44.80
5492;DHT22;2768;53.540;10.224;2023-05-08T02:27:33;10.70;40.80
5492;DHT22;2768;53.540;10.224;2023-05-08T02:33:26;10.60;44.40
5492;DHT22;2768;53.540;10.224;2023-05-08T02:39:25;10.50;44.30
5492;DHT22;2768;53.540;10.224;2023-05-08T02:45:22;10.50;46.60
5492;DHT22;2768;53.540;10.224;2023-05-08T02:51:22;10.50;52.30
5492;DHT22;2768;53.540;10.224;2023-05-08T02:57:24;10.50;57.90
5492;DHT22;2768;53.540;10.224;2023-05-08T03:03:24;10.50;54.60
5492;DHT22;2768;53.540;10.224;2023-05-08T03:09:20;10.40;56.00
5492;DHT22;2768;53.540;10.224;2023-05-08T03:15:20;10.50;59.10
5492;DHT22;2768;53.540;10.224;2023-05-08T03:21:19;10.50;60.90
5492;DHT22;2768;53.540;10.224;2023-05-08T03:27:13;10.40;59.00
5492;DHT22;2768;53.540;10.224;2023-05-08T03:33:10;10.40;55.00
5492;DHT22;2768;53.540;10.224;2023-05-08T03:39:05;10.20;58.90
5492;DHT22;2768;53.540;10.224;2023-05-08T03:45:01;10.10;58.70
5492;DHT22;2768;53.540;10.224;2023-05-08T03:50:56;10.20;59.00
5492;DHT22;2768;53.540;10.224;2023-05-08T03:56:53;10.20;60.40
5492;DHT22;2768;53.540;10.224;2023-05-08T04:02:49;10.20;58.90
5492;DHT22;2768;53.540;10.224;2023-05-08T04:08:54;10.10;61.80
5492;DHT22;2768;53.540;10.224;2023-05-08T04:15:02;10.10;64.50
5492;DHT22;2768;53.540;10.224;2023-05-08T04:20:58;10.10;63.70
5492;DHT22;2768;53.540;10.224;2023-05-08T04:26:53;10.20;63.30
5492;DHT22;2768;53.540;10.224;2023-05-08T04:32:48;10.10;61.00
5492;DHT22;2768;53.540;10.224;2023-05-08T04:38:43;9.90;67.90
5492;DHT22;2768;53.540;10.224;2023-05-08T04:44:37;9.90;70.40
5492;DHT22;2768;53.540;10.224;2023-05-08T04:50:32;10.00;70.40
5492;DHT22;2768;53.540;10.224;2023-05-08T04:56:26;10.00;75.50
5492;DHT22;2768;53.540;10.224;2023-05-08T05:02:19;10.00;73.50
5492;DHT22;2768;53.540;10.224;2023-05-08T05:08:14;9.90;76.80
5492;DHT22;2768;53.540;10.224;2023-05-08T05:14:08;9.90;74.70
5492;DHT22;2768;53.540;10.224;2023-05-08T05:20:02;9.90;77.30
5492;DHT22;2768;53.540;10.224;2023-05-08T05:25:58;10.00;74.80
5492;DHT22;2768;53.540;10.224;2023-05-08T05:31:53;9.90;76.40
5492;DHT22;2768;53.540;10.224;2023-05-08T05:37:47;9.90;74.50
5492;DHT22;2768;53.540;10.224;2023-05-08T05:43:42;10.00;81.60
5492;DHT22;2768;53.540;10.224;2023-05-08T05:49:35;10.00;74.00
5492;DHT22;2768;53.540;10.224;2023-05-08T05:55:31;10.00;74.50
5492;DHT22;2768;53.540;10.224;2023-05-08T06:01:26;10.00;74.40
5492;DHT22;2768;53.540;10.224;2023-05-08T06:07:21;10.00;72.20
5492;DHT22;2768;53.540;10.224;2023-05-08T06:13:14;10.10;72.30
5492;DHT22;2768;53.540;10.224;2023-05-08T06:19:09;10.20;75.00
5492;DHT22;2768;53.540;10.224;2023-05-08T06:25:02;10.10;72.50
5492;DHT22;2768;53.540;10.224;2023-05-08T06:30:57;10.30;77.30
5492;DHT22;2768;53.540;10.224;2023-05-08T06:36:52;10.40;73.80
5492;DHT22;2768;53.540;10.224;2023-05-08T06:42:45;10.40;75.10
5492;DHT22;2768;53.540;10.224;2023-05-08T06:48:38;10.60;77.90
5492;DHT22;2768;53.540;10.224;2023-05-08T06:54:34;10.60;74.00
5492;DHT22;2768;53.540;10.224;2023-05-08T07:00:28;10.70;73.30
5492;DHT22;2768;53.540;10.224;2023-05-08T07:06:21;10.80;75.30
5492;DHT22;2768;53.540;10.224;2023-05-08T07:12:16;11.00;77.60
5492;DHT22;2768;53.540;10.224;2023-05-08T07:18:09;11.10;87.00
5492;DHT22;2768;53.540;10.224;2023-05-08T07:24:02;11.20;75.00
5492;DHT22;2768;53.540;10.224;2023-05-08T07:29:57;11.20;71.00
5492;DHT22;2768;53.540;10.224;2023-05-08T07:35:54;11.40;74.50
5492;DHT22;2768;53.540;10.224;2023-05-08T07:41:48;11.40;67.30
5492;DHT22;2768;53.540;10.224;2023-05-08T07:47:49;11.60;74.30
5492;DHT22;2768;53.540;10.224;2023-05-08T07:53:43;11.60;70.90
5492;DHT22;2768;53.540;10.224;2023-05-08T07:59:37;11.60;71.10
5492;DHT22;2768;53.540;10.224;2023-05-08T08:05:32;11.70;72.50
5492;DHT22;2768;53.540;10.224;2023-05-08T08:11:25;11.80;68.60
5492;DHT22;2768;53.540;10.224;2023-05-08T08:17:18;12.00;71.10
5492;DHT22;2768;53.540;10.224;2023-05-08T08:23:13;12.00;65.10
5492;DHT22;2768;53.540;10.224;2023-05-08T08:29:06;12.10;66.80
5492;DHT22;2768;53.540;10.224;2023-05-08T08:34:59;12.30;60.90
5492;DHT22;2768;53.540;10.224;2023-05-08T08:40:54;12.40;66.50
5492;DHT22;2768;53.540;10.224;2023-05-08T08:46:50;12.50;60.80
5492;DHT22;2768;53.540;10.224;2023-05-08T08:52:47;12.60;57.70
5492;DHT22;2768;53.540;10.224;2023-05-08T08:58:48;12.80;61.60
5492;DHT22;2768;53.540;10.224;2023-05-08T09:04:44;12.90;61.20
5492;DHT22;2768;53.540;10.224;2023-05-08T09:10:41;13.10;67.00
5492;DHT22;2768;53.540;10.224;2023-05-08T09:16:36;13.20;61.60
5492;DHT22;2768;53.540;10.224;2023-05-08T09:22:30;13.30;43.80
5492;DHT22;2768;53.540;10.224;2023-05-08T09:28:24;13.40;51.60
5492;DHT22;2768;53.540;10.224;2023-05-08T09:34:23;13.50;47.20
5492;DHT22;2768;53.540;10.224;2023-05-08T09:40:19;13.70;54.90
5492;DHT22;2768;53.540;10.224;2023-05-08T09:46:23;14.00;41.70
5492;DHT22;2768;53.540;10.224;2023-05-08T09:52:18;14.20;45.50
5492;DHT22;2768;53.540;10.224;2023-05-08T09:58:12;14.50;41.00
5492;DHT22;2768;53.540;10.224;2023-05-08T10:04:07;14.80;32.30
5492;DHT22;2768;53.540;10.224;2023-05-08T10:10:03;15.20;22.70
5492;DHT22;2768;53.540;10.224;2023-05-08T10:15:57;16.40;18.40
5492;DHT22;2768;53.540;10.224;2023-05-08T10:21:51;16.80;1.00
5492;DHT22;2768;53.540;10.224;2023-05-08T10:27:50;17.00;1.00
5492;DHT22;2768;53.540;10.224;2023-05-08T10:33:49;16.20;1.00
5492;DHT22;2768;53.540;10.224;2023-05-08T10:39:43;16.10;1.00
5492;DHT22;2768;53.540;10.224;2023-05-08T10:45:38;16.60;1.00
5492;DHT22;2768;53.540;10.224;2023-05-08T10:51:37;16.70;1.00
5492;DHT22;2768;53.540;10.224;2023-05-08T10:57:32;17.20;1.00
5492;DHT22;2768;53.540;10.224;2023-05-08T11:03:28;17.10;1.00
5492;DHT22;2768;53.540;10.224;2023-05-08T11:09:27;16.70;1.00
5492;DHT22;2768;53.540;10.224;2023-05-08T11:15:34;17.10;1.00
5492;DHT22;2768;53.540;10.224;2023-05-08T11:21:29;18.00;1.00
5492;DHT22;2768;53.540;10.224;2023-05-08T11:33:49;19.40;1.00
5492;DHT22;2768;53.540;10.224;2023-05-08T11:39:43;19.40;1.00
5492;DHT22;2768;53.540;10.224;2023-05-08T11:45:39;19.80;1.00
5492;DHT22;2768;53.540;10.224;2023-05-08T11:51:32;19.70;1.00
5492;DHT22;2768;53.540;10.224;2023-05-08T11:57:30;19.80;1.00
5492;DHT22;2768;53.540;10.224;2023-05-08T12:03:24;19.80;1.00
5492;DHT22;2768;53.540;10.224;2023-05-08T12:09:18;19.60;1.00
5492;DHT22;2768;53.540;10.224;2023-05-08T12:15:13;19.70;1.00
5492;DHT22;2768;53.540;10.224;2023-05-08T12:21:07;19.70;1.00
5492;DHT22;2768;53.540;10.224;2023-05-08T12:27:02;19.80;1.00
5492;DHT22;2768;53.540;10.224;2023-05-08T12:32:57;19.70;1.00
5492;DHT22;2768;53.540;10.224;2023-05-08T12:38:50;19.60;1.00
5492;DHT22;2768;53.540;10.224;2023-05-08T12:44:49;19.60;1.00
5492;DHT22;2768;53.540;10.224;2023-05-08T12:50:45;19.70;1.00
5492;DHT22;2768;53.540;10.224;2023-05-08T12:56:41;20.00;1.00
5492;DHT22;2768;53.540;10.224;2023-05-08T13:02:35;19.90;1.00
5492;DHT22;2768;53.540;10.224;2023-05-08T13:08:39;20.20;1.00
5492;DHT22;2768;53.540;10.224;2023-05-08T13:14:32;20.40;1.00
5492;DHT22;2768;53.540;10.224;2023-05-08T13:20:25;20.40;1.00
5492;DHT22;2768;53.540;10.224;2023-05-08T13:26:20;20.60;1.00
5492;DHT22;2768;53.540;10.224;2023-05-08T13:32:13;20.70;1.00
5492;DHT22;2768;53.540;10.224;2023-05-08T13:38:06;21.20;1.00
5492;DHT22;2768;53.540;10.224;2023-05-08T13:44:01;22.10;1.00
5492;DHT22;2768;53.540;10.224;2023-05-08T13:49:54;21.60;1.00
5492;DHT22;2768;53.540;10.224;2023-05-08T13:55:47;22.00;1.00
5492;DHT22;2768;53.540;10.224;2023-05-08T14:01:41;23.30;1.00
5492;DHT22;2768;53.540;10.224;2023-05-08T14:07:34;23.90;1.00
5492;DHT22;2768;53.540;10.224;2023-05-08T14:13:27;24.60;1.00
5492;DHT22;2768;53.540;10.224;2023-05-08T14:19:22;25.00;1.00
5492;DHT22;2768;53.540;10.224;2023-05-08T14:25:15;24.60;1.00
5492;DHT22;2768;53.540;10.224;2023-05-08T14:31:08;23.60;1.00
5492;DHT22;2768;53.540;10.224;2023-05-08T14:37:02;23.20;1.00
5492;DHT22;2768;53.540;10.224;2023-05-08T14:42:55;22.60;1.00
5492;DHT22;2768;53.540;10.224;2023-05-08T14:48:48;21.90;1.00
5492;DHT22;2768;53.540;10.224;2023-05-08T14:54:44;21.10;1.00
5492;DHT22;2768;53.540;10.224;2023-05-08T15:00:39;20.50;1.00
5492;DHT22;2768;53.540;10.224;2023-05-08T15:06:32;20.20;1.00
5492;DHT22;2768;53.540;10.224;2023-05-08T15:12:28;20.10;1.00
5492;DHT22;2768;53.540;10.224;2023-05-08T15:18:21;20.10;1.00
5492;DHT22;2768;53.540;10.224;2023-05-08T15:24:16;19.90;1.00
5492;DHT22;2768;53.540;10.224;2023-05-08T15:30:11;19.70;1.00
5492;DHT22;2768;53.540;10.224;2023-05-08T15:36:05;19.50;1.00
5492;DHT22;2768;53.540;10.224;2023-05-08T15:41:58;19.50;1.00
5492;DHT22;2768;53.540;10.224;2023-05-08T15:47:53;19.40;1.00
5492;DHT22;2768;53.540;10.224;2023-05-08T15:53:46;19.40;1.00
5492;DHT22;2768;53.540;10.224;2023-05-08T15:59:39;19.30;1.00
5492;DHT22;2768;53.540;10.224;2023-05-08T16:05:33;19.20;1.00
5492;DHT22;2768;53.540;10.224;2023-05-08T16:11:28;19.10;1.00
5492;DHT22;2768;53.540;10.224;2023-05-08T16:17:22;19.20;1.00
5492;DHT22;2768;53.540;10.224;2023-05-08T16:23:16;19.10;1.00
5492;DHT22;2768;53.540;10.224;2023-05-08T16:29:09;19.20;1.00
5492;DHT22;2768;53.540;10.224;2023-05-08T16:35:03;19.00;1.00
5492;DHT22;2768;53.540;10.224;2023-05-08T16:41:01;19.10;1.00
5492;DHT22;2768;53.540;10.224;2023-05-08T16:46:55;19.00;1.00
5492;DHT22;2768;53.540;10.224;2023-05-08T16:52:48;19.00;1.00
5492;DHT22;2768;53.540;10.224;2023-05-08T16:58:42;18.90;1.00
5492;DHT22;2768;53.540;10.224;2023-05-08T17:04:36;18.80;1.00
5492;DHT22;2768;53.540;10.224;2023-05-08T17:10:29;18.80;1.00
5492;DHT22;2768;53.540;10.224;2023-05-08T17:16:24;18.70;1.00
5492;DHT22;2768;53.540;10.224;2023-05-08T17:22:17;18.70;1.00
5492;DHT22;2768;53.540;10.224;2023-05-08T17:28:11;18.60;1.00
5492;DHT22;2768;53.540;10.224;2023-05-08T17:34:06;18.60;1.00
5492;DHT22;2768;53.540;10.224;2023-05-08T17:40:00;18.40;1.00
5492;DHT22;2768;53.540;10.224;2023-05-08T17:45:54;18.40;1.00
5492;DHT22;2768;53.540;10.224;2023-05-08T17:51:48;18.30;1.00
5492;DHT22;2768;53.540;10.224;2023-05-08T17:57:42;18.20;1.00
5492;DHT22;2768;53.540;10.224;2023-05-08T18:03:35;18.20;1.00
5492;DHT22;2768;53.540;10.224;2023-05-08T18:09:30;18.10;1.00
5492;DHT22;2768;53.540;10.224;2023-05-08T18:15:23;18.00;1.00
5492;DHT22;2768;53.540;10.224;2023-05-08T18:21:17;17.90;1.00
5492;DHT22;2768;53.540;10.224;2023-05-08T18:27:11;17.80;1.00
5492;DHT22;2768;53.540;10.224;2023-05-08T18:33:05;17.70;1.00
5492;DHT22;2768;53.540;10.224;2023-05-08T18:38:58;17.60;1.00
5492;DHT22;2768;53.540;10.224;2023-05-08T18:44:54;17.50;1.00
5492;DHT22;2768;53.540;10.224;2023-05-08T18:50:47;17.40;1.00
5492;DHT22;2768;53.540;10.224;2023-05-08T18:56:40;17.30;1.00
5492;DHT22;2768;53.540;10.224;2023-05-08T19:02:35;17.20;1.00
5492;DHT22;2768;53.540;10.224;2023-05-08T19:08:28;17.10;1.00
5492;DHT22;2768;53.540;10.224;2023-05-08T19:14:21;17.00;1.00
5492;DHT22;2768;53.540;10.224;2023-05-08T19:20:16;16.90;1.00
5492;DHT22;2768;53.540;10.224;2023-05-08T19:26:09;16.80;1.00
5492;DHT22;2768;53.540;10.224;2023-05-08T19:32:03;16.70;1.00
5492;DHT22;2768;53.540;10.224;2023-05-08T19:37:58;16.70;1.00
5492;DHT22;2768;53.540;10.224;2023-05-08T19:43:51;16.50;1.00
5492;DHT22;2768;53.540;10.224;2023-05-08T19:49:45;16.50;1.00
5492;DHT22;2768;53.540;10.224;2023-05-08T19:55:40;16.40;1.00
5492;DHT22;2768;53.540;10.224;2023-05-08T20:01:33;16.30;1.00
5492;DHT22;2768;53.540;10.224;2023-05-08T20:07:26;16.30;1.00
5492;DHT22;2768;53.540;10.224;2023-05-08T20:13:21;16.30;1.00
5492;DHT22;2768;53.540;10.224;2023-05-08T20:19:15;16.20;1.00
5492;DHT22;2768;53.540;10.224;2023-05-08T20:25:08;16.10;1.00
5492;DHT22;2768;53.540;10.224;2023-05-08T20:31:02;16.00;1.00
5492;DHT22;2768;53.540;10.224;2023-05-08T20:36:56;16.00;1.00
5492;DHT22;2768;53.540;10.224;2023-05-08T20:42:51;15.90;1.00
5492;DHT22;2768;53.540;10.224;2023-05-08T20:48:46;15.80;1.00
5492;DHT22;2768;53.540;10.224;2023-05-08T20:54:39;15.80;1.00
5492;DHT22;2768;53.540;10.224;2023-05-08T21:00:35;15.70;1.00
5492;DHT22;2768;53.540;10.224;2023-05-08T21:06:30;15.60;1.00
5492;DHT22;2768;53.540;10.224;2023-05-08T21:12:24;15.60;1.00
5492;DHT22;2768;53.540;10.224;2023-05-08T21:18:17;15.50;1.00
5492;DHT22;2768;53.540;10.224;2023-05-08T21:24:12;15.50;1.00
5492;DHT22;2768;53.540;10.224;2023-05-08T21:30:06;15.40;1.00
5492;DHT22;2768;53.540;10.224;2023-05-08T21:36:00;15.30;1.00
5492;DHT22;2768;53.540;10.224;2023-05-08T21:41:54;15.20;1.00
5492;DHT22;2768;53.540;10.224;2023-05-08T21:47:48;15.20;1.00
5492;DHT22;2768;53.540;10.224;2023-05-08T21:53:42;15.10;1.00
5492;DHT22;2768;53.540;10.224;2023-05-08T21:59:38;15.00;1.00
5492;DHT22;2768;53.540;10.224;2023-05-08T22:05:32;15.00;1.00
5492;DHT22;2768;53.540;10.224;2023-05-08T22:11:25;15.00;1.00
5492;DHT22;2768;53.540;10.224;2023-05-08T22:17:20;14.90;1.00
5492;DHT22;2768;53.540;10.224;2023-05-08T22:23:13;14.80;1.00
5492;DHT22;2768;53.540;10.224;2023-05-08T22:29:06;14.80;1.00
5492;DHT22;2768;53.540;10.224;2023-05-08T22:35:01;14.70;1.00
5492;DHT22;2768;53.540;10.224;2023-05-08T22:40:55;14.70;1.00
5492;DHT22;2768;53.540;10.224;2023-05-08T22:46:50;14.60;1.00
5492;DHT22;2768;53.540;10.224;2023-05-08T22:52:45;14.60;1.00
5492;DHT22;2768;53.540;10.224;2023-05-08T22:58:38;14.50;1.00
5492;DHT22;2768;53.540;10.224;2023-05-08T23:04:31;14.50;1.00
5492;DHT22;2768;53.540;10.224;2023-05-08T23:10:26;14.50;1.00
5492;DHT22;2768;53.540;10.224;2023-05-08T23:16:19;14.50;1.00
5492;DHT22;2768;53.540;10.224;2023-05-08T23:22:13;14.50;1.00
5492;DHT22;2768;53.540;10.224;2023-05-08T23:28:08;14.40;1.00
5492;DHT22;2768;53.540;10.224;2023-05-08T23:38:27;14.30;1.00
5492;DHT22;2768;53.540;10.224;2023-05-08T23:44:20;14.30;1.00
5492;DHT22;2768;53.540;10.224;2023-05-08T23:50:14;14.30;1.00
5492;DHT22;2768;53.540;10.224;2023-05-08T23:56:08;14.20;1.00
